Time;durP1;ratioP1;P1;durP2;ratioP2;P2;SDS_P1;SDS_P2;PMS_P1;PMS_P2;Temp;Humidity;BMP_temperature;BMP_pressure;BME280_temperature;BME280_humidity;BME280_pressure;Samples;Min_cycle;Max_cycle;Signal;HPM_P1;HPM_P2
2023/09/07 00:01:22;;;;;;;4.72;4.05;;;;;;;;;;4988153;28;20178;-75
2023/09/07 00:03:48;;;;;;;6.97;3.63;;;;;;;;;;5020911;28;20052;-75
2023/09/07 00:06:14;;;;;;;5.97;3.70;;;;;;;;;;5019921;28;20128;-75
2023/09/07 00:08:40;;;;;;;4.05;3.58;;;;;;;;;;5003063;28;20099;-75
2023/09/07 00:11:06;;;;;;;8.13;3.80;;;;;;;;;;5018982;28;20044;-75
2023/09/07 00:13:33;;;;;;;5.18;3.72;;;;;;;;;;5005588;28;20547;-75
2023/09/07 00:16:03;;;;;;;7.50;4.07;;;;;;;;;;5018329;28;20045;-75
2023/09/07 00:18:29;;;;;;;5.82;4.22;;;;;;;;;;5021439;28;20048;-75
2023/09/07 00:20:55;;;;;;;5.22;4.03;;;;;;;;;;5036344;28;20102;-75
2023/09/07 00:23:21;;;;;;;9.35;4.22;;;;;;;;;;5034004;28;20052;-76
2023/09/07 00:25:47;;;;;;;4.13;3.60;;;;;;;;;;4999857;28;20148;-76
2023/09/07 00:28:13;;;;;;;4.05;3.65;;;;;;;;;;5017427;28;20175;-76
2023/09/07 00:30:40;;;;;;;6.45;4.18;;;;;;;;;;5013801;28;20041;-76
2023/09/07 00:33:06;;;;;;;6.20;4.55;;;;;;;;;;4996870;28;20488;-76
2023/09/07 00:35:32;;;;;;;9.73;4.00;;;;;;;;;;5014544;28;20045;-75
2023/09/07 00:37:58;;;;;;;6.80;4.07;;;;;;;;;;5035681;28;20045;-76
2023/09/07 00:40:26;;;;;;;9.63;4.25;;;;;;;;;;5018272;28;21939;-76
2023/09/07 00:42:52;;;;;;;5.28;3.95;;;;;;;;;;5034150;28;20046;-75
2023/09/07 00:45:18;;;;;;;4.78;3.60;;;;;;;;;;5017584;28;20048;-75
2023/09/07 00:47:45;;;;;;;4.68;3.70;;;;;;;;;;5033848;28;20067;-75
2023/09/07 00:50:16;;;;;;;5.10;3.67;;;;;;;;;;5015223;28;20086;-76
2023/09/07 00:52:46;;;;;;;6.00;4.00;;;;;;;;;;5000560;28;20047;-75
2023/09/07 00:55:13;;;;;;;4.65;4.18;;;;;;;;;;4999790;28;20634;-75
2023/09/07 00:57:39;;;;;;;6.82;4.18;;;;;;;;;;5017952;28;20071;-76
2023/09/07 01:00:07;;;;;;;9.27;4.15;;;;;;;;;;5019852;28;20077;-76
2023/09/07 01:02:33;;;;;;;6.38;4.72;;;;;;;;;;5021883;28;20156;-76
2023/09/07 01:04:59;;;;;;;4.57;3.70;;;;;;;;;;5016583;28;20156;-76
2023/09/07 01:07:32;;;;;;;5.35;3.83;;;;;;;;;;5016635;28;21962;-76
2023/09/07 01:10:00;;;;;;;7.80;4.07;;;;;;;;;;5036303;28;20039;-76
2023/09/07 01:12:27;;;;;;;6.05;4.07;;;;;;;;;;5031892;28;20077;-76
2023/09/07 01:14:53;;;;;;;8.32;4.20;;;;;;;;;;4999129;28;20087;-76
2023/09/07 01:17:21;;;;;;;4.10;3.80;;;;;;;;;;5015920;28;22210;-76
2023/09/07 01:19:51;;;;;;;4.65;4.15;;;;;;;;;;5035197;28;20119;-74
2023/09/07 01:22:18;;;;;;;4.45;3.80;;;;;;;;;;5019456;28;20044;-76
2023/09/07 01:24:45;;;;;;;6.10;4.55;;;;;;;;;;5035749;28;20930;-76
2023/09/07 01:27:13;;;;;;;5.55;4.32;;;;;;;;;;5035139;28;20046;-75
2023/09/07 01:29:39;;;;;;;7.40;3.92;;;;;;;;;;5037780;28;21999;-75
2023/09/07 01:32:06;;;;;;;9.63;4.25;;;;;;;;;;5018555;28;20103;-76
2023/09/07 01:34:32;;;;;;;5.75;4.38;;;;;;;;;;5034757;28;20658;-76
2023/09/07 01:36:58;;;;;;;5.53;4.10;;;;;;;;;;5017267;28;20171;-76
2023/09/07 01:39:24;;;;;;;5.03;4.18;;;;;;;;;;5018116;28;21037;-76
2023/09/07 01:41:50;;;;;;;5.80;4.18;;;;;;;;;;5017572;28;20044;-76
2023/09/07 01:44:16;;;;;;;6.18;4.50;;;;;;;;;;5015071;28;20114;-76
2023/09/07 01:46:42;;;;;;;4.97;4.32;;;;;;;;;;5016365;28;20163;-76
2023/09/07 01:49:08;;;;;;;6.65;4.38;;;;;;;;;;5002916;28;20823;-76
2023/09/07 01:51:35;;;;;;;4.70;4.30;;;;;;;;;;5019485;28;20063;-76
2023/09/07 01:54:01;;;;;;;7.00;4.68;;;;;;;;;;5018820;28;20455;-76
2023/09/07 01:56:27;;;;;;;5.80;4.85;;;;;;;;;;5021512;28;20595;-76
2023/09/07 01:58:53;;;;;;;5.78;4.40;;;;;;;;;;5039631;28;20669;-75
2023/09/07 02:01:22;;;;;;;6.40;5.03;;;;;;;;;;5037011;28;21212;-76
2023/09/07 02:03:49;;;;;;;9.05;4.93;;;;;;;;;;5019420;28;20104;-76
2023/09/07 02:06:15;;;;;;;8.77;6.00;;;;;;;;;;5017596;28;20041;-76
2023/09/07 02:08:41;;;;;;;7.80;4.72;;;;;;;;;;5035308;28;20261;-76
2023/09/07 02:11:07;;;;;;;5.65;5.03;;;;;;;;;;5039709;28;20582;-76
2023/09/07 02:13:33;;;;;;;9.43;5.22;;;;;;;;;;5037593;28;20041;-76
2023/09/07 02:16:03;;;;;;;8.75;4.88;;;;;;;;;;5019729;28;20054;-76
2023/09/07 02:18:29;;;;;;;6.78;4.80;;;;;;;;;;5017452;28;21705;-76
2023/09/07 02:20:55;;;;;;;6.38;5.00;;;;;;;;;;5040198;28;20048;-76
2023/09/07 02:23:21;;;;;;;8.38;5.30;;;;;;;;;;5034441;28;20041;-76
2023/09/07 02:25:47;;;;;;;5.82;5.20;;;;;;;;;;5033981;28;20643;-76
2023/09/07 02:28:13;;;;;;;6.28;5.00;;;;;;;;;;5035611;28;20053;-76
2023/09/07 02:30:39;;;;;;;10.88;5.47;;;;;;;;;;5033820;28;20044;-75
2023/09/07 02:33:05;;;;;;;7.07;4.88;;;;;;;;;;5017420;28;20049;-76
2023/09/07 02:35:31;;;;;;;6.63;4.82;;;;;;;;;;5000041;28;20040;-76
2023/09/07 02:37:57;;;;;;;9.38;5.00;;;;;;;;;;5014652;28;20051;-76
2023/09/07 02:40:24;;;;;;;7.28;5.45;;;;;;;;;;5014719;28;20126;-76
2023/09/07 02:42:50;;;;;;;8.57;5.00;;;;;;;;;;5033731;28;20059;-75
2023/09/07 02:45:16;;;;;;;8.02;4.90;;;;;;;;;;5013813;28;20510;-75
2023/09/07 02:47:42;;;;;;;7.90;5.45;;;;;;;;;;5015951;28;20041;-75
2023/09/07 02:50:08;;;;;;;8.80;5.65;;;;;;;;;;5033260;28;20041;-76
2023/09/07 02:52:34;;;;;;;6.35;5.72;;;;;;;;;;4998750;28;20167;-76
2023/09/07 02:55:00;;;;;;;7.40;5.78;;;;;;;;;;5015397;28;20048;-75
2023/09/07 02:57:27;;;;;;;7.38;5.35;;;;;;;;;;5017232;28;20099;-75
2023/09/07 02:59:54;;;;;;;13.35;6.10;;;;;;;;;;5015238;28;20067;-76
2023/09/07 03:02:20;;;;;;;7.03;5.82;;;;;;;;;;5015828;28;21505;-76
2023/09/07 03:04:46;;;;;;;11.48;5.85;;;;;;;;;;5016613;28;20041;-76
2023/09/07 03:07:12;;;;;;;8.88;6.00;;;;;;;;;;5013118;28;20045;-76
2023/09/07 03:09:38;;;;;;;10.13;6.13;;;;;;;;;;5013745;28;20076;-76
2023/09/07 03:12:04;;;;;;;6.97;5.57;;;;;;;;;;5014980;28;20037;-76
2023/09/07 03:14:30;;;;;;;8.00;5.63;;;;;;;;;;5012428;28;20080;-76
2023/09/07 03:16:56;;;;;;;7.72;5.88;;;;;;;;;;5032924;28;20029;-76
2023/09/07 03:19:22;;;;;;;7.82;5.85;;;;;;;;;;5012195;28;20134;-76
2023/09/07 03:21:48;;;;;;;10.68;6.15;;;;;;;;;;5033293;28;20041;-76
2023/09/07 03:24:15;;;;;;;7.03;5.57;;;;;;;;;;5014798;28;20048;-76
2023/09/07 03:26:41;;;;;;;8.95;5.60;;;;;;;;;;5032581;28;20115;-76
2023/09/07 03:29:07;;;;;;;10.32;5.63;;;;;;;;;;5035149;28;20056;-76
2023/09/07 03:31:33;;;;;;;7.30;6.35;;;;;;;;;;5035364;28;20044;-76
2023/09/07 03:33:59;;;;;;;11.68;6.03;;;;;;;;;;5021632;28;20045;-76
2023/09/07 03:36:25;;;;;;;12.52;6.82;;;;;;;;;;5020161;28;20054;-76
2023/09/07 03:38:51;;;;;;;7.05;6.35;;;;;;;;;;5004928;28;20527;-75
2023/09/07 03:41:18;;;;;;;8.13;6.15;;;;;;;;;;5019670;28;20051;-76
2023/09/07 03:43:45;;;;;;;7.97;6.10;;;;;;;;;;5038304;28;20053;-76
2023/09/07 03:46:11;;;;;;;9.10;6.53;;;;;;;;;;5000475;28;20055;-75
2023/09/07 03:48:37;;;;;;;11.40;6.10;;;;;;;;;;5019154;28;20159;-75
2023/09/07 03:51:07;;;;;;;6.60;6.00;;;;;;;;;;5037828;28;20123;-76
2023/09/07 03:53:33;;;;;;;10.27;6.80;;;;;;;;;;5040330;28;20072;-76
2023/09/07 03:55:59;;;;;;;6.97;6.15;;;;;;;;;;5021324;28;20105;-75
2023/09/07 03:58:25;;;;;;;9.05;6.53;;;;;;;;;;5040941;28;20049;-76
2023/09/07 04:00:51;;;;;;;11.93;6.70;;;;;;;;;;5037395;28;20845;-76
2023/09/07 04:03:18;;;;;;;8.20;6.60;;;;;;;;;;5038561;28;20037;-76
2023/09/07 04:05:44;;;;;;;9.25;6.30;;;;;;;;;;5015665;28;20044;-76
2023/09/07 04:08:10;;;;;;;8.13;6.50;;;;;;;;;;5012058;28;20119;-75
2023/09/07 04:10:41;;;;;;;10.38;6.55;;;;;;;;;;5015506;28;20073;-76
2023/09/07 04:13:07;;;;;;;9.52;6.78;;;;;;;;;;5016107;28;20053;-76
2023/09/07 04:15:43;;;;;;;14.43;6.75;;;;;;;;;;4991083;28;20051;-75
2023/09/07 04:18:12;;;;;;;6.93;6.22;;;;;;;;;;5038011;28;20174;-75
2023/09/07 04:20:38;;;;;;;8.70;6.85;;;;;;;;;;5038640;28;20048;-75
2023/09/07 04:23:04;;;;;;;8.48;6.68;;;;;;;;;;5018013;28;20049;-74
2023/09/07 04:25:32;;;;;;;9.57;7.15;;;;;;;;;;5019447;28;20174;-76
2023/09/07 04:27:58;;;;;;;17.65;7.57;;;;;;;;;;5015896;28;20076;-75
2023/09/07 04:30:24;;;;;;;8.18;6.40;;;;;;;;;;5034919;28;20487;-75
2023/09/07 04:32:50;;;;;;;7.07;6.30;;;;;;;;;;5035853;28;20949;-76
2023/09/07 04:35:16;;;;;;;12.05;6.20;;;;;;;;;;5033739;28;20042;-76
2023/09/07 04:37:44;;;;;;;7.85;7.05;;;;;;;;;;5015621;28;20829;-76
2023/09/07 04:40:10;;;;;;;14.02;6.90;;;;;;;;;;5033713;28;20053;-75
2023/09/07 04:42:38;;;;;;;14.88;7.05;;;;;;;;;;5013393;28;20132;-75
2023/09/07 04:45:05;;;;;;;8.15;6.82;;;;;;;;;;5007998;28;20135;-76
2023/09/07 04:47:31;;;;;;;9.70;6.45;;;;;;;;;;5025936;28;20042;-75
2023/09/07 04:49:58;;;;;;;9.98;6.85;;;;;;;;;;5014062;28;20043;-75
2023/09/07 04:52:24;;;;;;;11.80;7.18;;;;;;;;;;5014151;28;20137;-77
2023/09/07 04:54:50;;;;;;;10.10;7.15;;;;;;;;;;5013863;28;20045;-76
2023/09/07 04:57:20;;;;;;;12.73;7.13;;;;;;;;;;5012966;28;20053;-76
2023/09/07 04:59:46;;;;;;;11.32;7.32;;;;;;;;;;5008242;28;20622;-76
2023/09/07 05:02:12;;;;;;;13.88;7.85;;;;;;;;;;5010396;28;20493;-76
2023/09/07 05:04:38;;;;;;;12.00;7.22;;;;;;;;;;5012898;28;20118;-76
2023/09/07 05:07:04;;;;;;;9.38;6.65;;;;;;;;;;5011023;28;20036;-76
2023/09/07 05:09:31;;;;;;;8.18;7.13;;;;;;;;;;4978395;28;20048;-76
2023/09/07 05:11:57;;;;;;;8.30;7.35;;;;;;;;;;5011119;28;20037;-77
2023/09/07 05:14:24;;;;;;;8.13;6.80;;;;;;;;;;5011802;28;20061;-77
2023/09/07 05:16:50;;;;;;;8.80;6.88;;;;;;;;;;5007650;28;20037;-76
2023/09/07 05:19:16;;;;;;;8.43;7.03;;;;;;;;;;5013663;28;20037;-76
2023/09/07 05:21:45;;;;;;;7.95;6.68;;;;;;;;;;5016165;28;20226;-76
2023/09/07 05:24:14;;;;;;;8.85;6.82;;;;;;;;;;4993025;28;20162;-76
2023/09/07 05:26:41;;;;;;;10.98;7.28;;;;;;;;;;5011398;28;20057;-76
2023/09/07 05:29:07;;;;;;;9.68;6.72;;;;;;;;;;5011374;28;20041;-76
2023/09/07 05:31:33;;;;;;;12.75;7.18;;;;;;;;;;5010138;28;20053;-77
2023/09/07 05:34:00;;;;;;;10.15;7.13;;;;;;;;;;5009332;28;20055;-75
2023/09/07 05:36:27;;;;;;;13.32;7.05;;;;;;;;;;5009048;28;20670;-85
2023/09/07 05:38:53;;;;;;;8.90;7.32;;;;;;;;;;5014374;28;20055;-84
2023/09/07 05:41:19;;;;;;;7.70;6.55;;;;;;;;;;5012170;28;20593;-84
2023/09/07 05:43:45;;;;;;;15.18;7.97;;;;;;;;;;5024138;28;20127;-84
2023/09/07 05:46:11;;;;;;;8.02;6.68;;;;;;;;;;5017957;28;20115;-84
2023/09/07 05:48:37;;;;;;;9.32;7.10;;;;;;;;;;5016211;28;20175;-75
2023/09/07 05:51:03;;;;;;;11.70;6.68;;;;;;;;;;5014367;28;20051;-75
2023/09/07 05:53:30;;;;;;;8.05;7.25;;;;;;;;;;5012165;28;20089;-75
2023/09/07 05:55:56;;;;;;;8.25;6.97;;;;;;;;;;5035587;28;20176;-74
2023/09/07 05:58:22;;;;;;;8.30;6.88;;;;;;;;;;5015779;28;20794;-83
2023/09/07 06:00:48;;;;;;;7.80;6.88;;;;;;;;;;5033688;28;20049;-83
2023/09/07 06:03:14;;;;;;;11.27;7.45;;;;;;;;;;5034604;28;20043;-83
2023/09/07 06:05:40;;;;;;;8.02;7.22;;;;;;;;;;5032540;28;20127;-83
2023/09/07 06:08:07;;;;;;;8.52;7.05;;;;;;;;;;5032519;28;20032;-83
2023/09/07 06:10:33;;;;;;;9.73;7.30;;;;;;;;;;5018271;28;20178;-83
2023/09/07 06:12:59;;;;;;;8.00;6.90;;;;;;;;;;5035727;28;20052;-84
2023/09/07 06:15:27;;;;;;;8.35;6.80;;;;;;;;;;5038662;28;20040;-84
2023/09/07 06:17:54;;;;;;;7.50;6.72;;;;;;;;;;5020224;28;20059;-83
2023/09/07 06:20:20;;;;;;;10.77;7.80;;;;;;;;;;5015120;28;20163;-82
2023/09/07 06:22:46;;;;;;;7.85;7.10;;;;;;;;;;5000232;28;21472;-82
2023/09/07 06:25:12;;;;;;;9.82;6.45;;;;;;;;;;5014163;28;20497;-77
2023/09/07 06:27:38;;;;;;;7.53;6.82;;;;;;;;;;5013124;28;20064;-77
2023/09/07 06:30:08;;;;;;;7.38;6.78;;;;;;;;;;5014177;28;20200;-77
2023/09/07 06:32:34;;;;;;;9.85;6.82;;;;;;;;;;5013349;28;20054;-77
2023/09/07 06:35:00;;;;;;;8.60;6.93;;;;;;;;;;4998345;28;20087;-83
2023/09/07 06:37:26;;;;;;;6.90;6.20;;;;;;;;;;5007666;28;20496;-77
2023/09/07 06:39:52;;;;;;;7.47;6.22;;;;;;;;;;5016908;28;20481;-77
2023/09/07 06:42:18;;;;;;;9.95;6.25;;;;;;;;;;5014659;28;20121;-77
2023/09/07 06:44:45;;;;;;;8.07;6.38;;;;;;;;;;5017812;28;20180;-77
2023/09/07 06:47:11;;;;;;;9.25;7.10;;;;;;;;;;5017105;28;20044;-77
2023/09/07 06:49:40;;;;;;;10.40;7.50;;;;;;;;;;5038028;28;20041;-81
2023/09/07 06:52:06;;;;;;;10.23;7.97;;;;;;;;;;5037238;28;20098;-78
2023/09/07 06:54:32;;;;;;;10.63;6.90;;;;;;;;;;5016203;28;20044;-82
2023/09/07 06:56:58;;;;;;;9.95;6.60;;;;;;;;;;5035655;28;20424;-82
2023/09/07 06:59:24;;;;;;;8.35;7.05;;;;;;;;;;5013137;28;20037;-82
2023/09/07 07:01:50;;;;;;;8.93;7.32;;;;;;;;;;4997511;28;20045;-81
2023/09/07 07:04:16;;;;;;;8.05;6.93;;;;;;;;;;4985936;28;20117;-82
2023/09/07 07:06:43;;;;;;;10.23;7.32;;;;;;;;;;5015400;28;20055;-82
2023/09/07 07:09:10;;;;;;;8.05;7.25;;;;;;;;;;5021482;28;20041;-82
2023/09/07 07:11:39;;;;;;;9.20;7.63;;;;;;;;;;5015070;28;21080;-82
2023/09/07 07:14:05;;;;;;;8.70;7.00;;;;;;;;;;5036869;28;21696;-82
2023/09/07 07:16:31;;;;;;;9.90;7.78;;;;;;;;;;5016586;28;20052;-82
2023/09/07 07:18:57;;;;;;;9.88;7.28;;;;;;;;;;5016299;28;20099;-83
2023/09/07 07:21:24;;;;;;;10.98;7.07;;;;;;;;;;5015870;28;20076;-83
2023/09/07 07:23:50;;;;;;;10.70;7.88;;;;;;;;;;5031655;28;21636;-82
2023/09/07 07:26:17;;;;;;;7.75;7.05;;;;;;;;;;5014832;28;20040;-82
2023/09/07 07:28:43;;;;;;;8.73;7.88;;;;;;;;;;5016283;28;20078;-83
2023/09/07 07:31:10;;;;;;;8.82;7.93;;;;;;;;;;4999402;28;20428;-82
2023/09/07 07:33:37;;;;;;;9.75;7.10;;;;;;;;;;5033165;28;20049;-82
2023/09/07 07:36:03;;;;;;;10.07;7.90;;;;;;;;;;5012891;28;20044;-82
2023/09/07 07:38:30;;;;;;;11.40;8.02;;;;;;;;;;5031185;28;20045;-82
2023/09/07 07:40:56;;;;;;;9.82;7.80;;;;;;;;;;5030152;28;20596;-82
2023/09/07 07:43:22;;;;;;;9.25;8.13;;;;;;;;;;5030978;28;20053;-81
2023/09/07 07:45:48;;;;;;;10.10;7.70;;;;;;;;;;5023602;28;20084;-81
2023/09/07 07:48:14;;;;;;;10.82;8.02;;;;;;;;;;5029363;28;20951;-82
2023/09/07 07:50:40;;;;;;;12.07;8.23;;;;;;;;;;5031709;28;20072;-82
2023/09/07 07:53:07;;;;;;;9.57;8.32;;;;;;;;;;4997921;28;20123;-82
2023/09/07 07:55:40;;;;;;;9.18;8.18;;;;;;;;;;5013943;28;20036;-83
2023/09/07 07:58:09;;;;;;;10.55;8.35;;;;;;;;;;5015087;28;20051;-85
2023/09/07 08:00:36;;;;;;;11.40;8.50;;;;;;;;;;5012351;28;20369;-81
2023/09/07 08:03:03;;;;;;;9.60;8.25;;;;;;;;;;5017363;28;21366;-82
2023/09/07 08:05:29;;;;;;;13.63;9.13;;;;;;;;;;5030193;28;20043;-82
2023/09/07 08:07:56;;;;;;;10.02;8.73;;;;;;;;;;5013647;28;20044;-82
2023/09/07 08:10:22;;;;;;;10.32;8.70;;;;;;;;;;5034100;28;20041;-75
2023/09/07 08:12:49;;;;;;;9.63;8.55;;;;;;;;;;5035531;28;20536;-75
2023/09/07 08:15:15;;;;;;;11.55;8.40;;;;;;;;;;5041861;28;20669;-75
2023/09/07 08:17:41;;;;;;;11.18;8.88;;;;;;;;;;5008395;28;20081;-76
2023/09/07 08:20:11;;;;;;;15.63;8.93;;;;;;;;;;5041754;28;20500;-75
2023/09/07 08:22:40;;;;;;;11.20;8.50;;;;;;;;;;5024165;28;20059;-75
2023/09/07 08:25:07;;;;;;;9.80;8.30;;;;;;;;;;5021249;28;20049;-75
2023/09/07 08:27:33;;;;;;;9.70;8.32;;;;;;;;;;5041290;28;20121;-75
2023/09/07 08:29:59;;;;;;;10.02;8.55;;;;;;;;;;5040499;28;20043;-75
2023/09/07 08:32:25;;;;;;;11.35;8.77;;;;;;;;;;5022959;28;20749;-75
2023/09/07 08:34:56;;;;;;;10.07;8.82;;;;;;;;;;5039714;28;20206;-75
2023/09/07 08:37:23;;;;;;;13.93;8.48;;;;;;;;;;5021773;28;20052;-75
2023/09/07 08:39:49;;;;;;;12.02;8.63;;;;;;;;;;5040963;28;20557;-76
2023/09/07 08:42:16;;;;;;;10.77;9.45;;;;;;;;;;5027864;28;20105;-76
2023/09/07 08:44:43;;;;;;;13.43;8.60;;;;;;;;;;5035884;28;20060;-76
2023/09/07 08:47:09;;;;;;;12.80;8.15;;;;;;;;;;5041461;28;20041;-76
2023/09/07 08:49:36;;;;;;;9.65;8.23;;;;;;;;;;5041948;28;22046;-75
2023/09/07 08:52:04;;;;;;;9.20;8.20;;;;;;;;;;5021814;28;20045;-76
2023/09/07 08:54:31;;;;;;;10.18;8.43;;;;;;;;;;5024030;28;20559;-76
2023/09/07 08:56:57;;;;;;;9.38;8.43;;;;;;;;;;5011589;28;20123;-76
2023/09/07 08:59:24;;;;;;;11.43;9.13;;;;;;;;;;5037884;28;20044;-76
2023/09/07 09:01:50;;;;;;;11.25;8.85;;;;;;;;;;5021187;28;20079;-75
2023/09/07 09:04:16;;;;;;;13.57;8.90;;;;;;;;;;5041237;28;20033;-76
2023/09/07 09:06:42;;;;;;;10.07;9.02;;;;;;;;;;5023240;28;20124;-76
2023/09/07 09:09:08;;;;;;;10.52;8.10;;;;;;;;;;5040365;28;20079;-76
2023/09/07 09:11:34;;;;;;;11.80;8.55;;;;;;;;;;5041995;28;20073;-76
2023/09/07 09:14:01;;;;;;;18.08;8.25;;;;;;;;;;5040023;28;20068;-76
2023/09/07 09:16:27;;;;;;;8.85;7.95;;;;;;;;;;5020908;28;20189;-76
2023/09/07 09:18:54;;;;;;;11.20;7.88;;;;;;;;;;5020071;28;20044;-76
2023/09/07 09:21:24;;;;;;;10.23;7.30;;;;;;;;;;5021679;28;20049;-75
2023/09/07 09:23:51;;;;;;;13.32;6.97;;;;;;;;;;5022588;28;20055;-75
2023/09/07 09:26:18;;;;;;;13.85;7.45;;;;;;;;;;5021293;28;20041;-75
2023/09/07 09:28:47;;;;;;;8.57;6.68;;;;;;;;;;5020881;28;20056;-75
2023/09/07 09:31:13;;;;;;;10.55;6.68;;;;;;;;;;5022085;28;20045;-75
2023/09/07 09:33:40;;;;;;;10.02;7.03;;;;;;;;;;5038314;28;20068;-75
2023/09/07 09:36:06;;;;;;;11.70;7.05;;;;;;;;;;5022786;28;20149;-75
2023/09/07 09:38:32;;;;;;;9.50;7.50;;;;;;;;;;5021624;28;20076;-75
2023/09/07 09:40:59;;;;;;;16.25;6.93;;;;;;;;;;5039739;28;20613;-75
2023/09/07 09:43:28;;;;;;;12.48;7.22;;;;;;;;;;5038992;28;20041;-75
2023/09/07 09:45:54;;;;;;;12.82;6.78;;;;;;;;;;5039734;28;20410;-75
2023/09/07 09:48:20;;;;;;;10.90;7.80;;;;;;;;;;5022726;28;20067;-75
2023/09/07 09:50:48;;;;;;;8.45;6.95;;;;;;;;;;5021977;28;20059;-75
2023/09/07 09:53:18;;;;;;;7.95;6.28;;;;;;;;;;5022067;28;20052;-75
2023/09/07 09:55:46;;;;;;;9.38;6.72;;;;;;;;;;5019616;28;20056;-75
2023/09/07 09:58:13;;;;;;;13.05;7.05;;;;;;;;;;5037479;28;20067;-75
2023/09/07 10:00:39;;;;;;;12.45;7.05;;;;;;;;;;5039056;28;20051;-75
2023/09/07 10:03:12;;;;;;;8.25;6.00;;;;;;;;;;5040706;28;20405;-75
2023/09/07 10:05:38;;;;;;;7.97;6.28;;;;;;;;;;5007801;28;20079;-75
2023/09/07 10:08:09;;;;;;;7.60;6.13;;;;;;;;;;5005104;28;20103;-76
2023/09/07 10:10:36;;;;;;;6.85;6.25;;;;;;;;;;5038734;28;20052;-76
2023/09/07 10:13:03;;;;;;;9.45;6.07;;;;;;;;;;5020468;28;20044;-75
2023/09/07 10:15:29;;;;;;;7.13;6.10;;;;;;;;;;5019490;28;20507;-76
2023/09/07 10:18:08;;;;;;;8.80;5.95;;;;;;;;;;5021078;28;20045;-74
2023/09/07 10:20:54;;;;;;;5.88;5.38;;;;;;;;;;5022535;28;20135;-75
2023/09/07 10:23:20;;;;;;;6.05;5.40;;;;;;;;;;5021506;28;20048;-75
2023/09/07 10:25:53;;;;;;;9.35;5.22;;;;;;;;;;5037531;28;20040;-75
2023/09/07 10:28:23;;;;;;;10.30;5.57;;;;;;;;;;5040099;28;20078;-76
2023/09/07 10:31:20;;;;;;;6.80;5.57;;;;;;;;;;5038728;28;20094;-75
2023/09/07 10:33:46;;;;;;;9.85;5.32;;;;;;;;;;5010031;28;20472;-75
2023/09/07 10:36:23;;;;;;;8.13;5.10;;;;;;;;;;5016335;28;20775;-75
2023/09/07 10:38:49;;;;;;;5.90;5.30;;;;;;;;;;5039677;28;20048;-75
2023/09/07 10:41:15;;;;;;;6.93;4.72;;;;;;;;;;5020420;28;20062;-75
2023/09/07 10:43:48;;;;;;;8.35;5.53;;;;;;;;;;5019291;28;20143;-75
2023/09/07 10:46:15;;;;;;;7.82;5.05;;;;;;;;;;5028624;28;20109;-75
2023/09/07 10:48:41;;;;;;;6.97;5.38;;;;;;;;;;5020041;28;20048;-75
2023/09/07 10:51:07;;;;;;;8.27;5.57;;;;;;;;;;5039686;28;20044;-76
2023/09/07 10:53:33;;;;;;;13.52;6.03;;;;;;;;;;5019123;28;20048;-75
2023/09/07 10:56:02;;;;;;;5.88;4.70;;;;;;;;;;5038820;28;20485;-75
2023/09/07 10:58:30;;;;;;;12.38;5.60;;;;;;;;;;5037641;28;21963;-76
2023/09/07 11:00:57;;;;;;;13.20;5.57;;;;;;;;;;5020776;28;20117;-76
2023/09/07 11:03:26;;;;;;;7.47;5.03;;;;;;;;;;5035195;28;20051;-76
2023/09/07 11:05:54;;;;;;;13.90;5.35;;;;;;;;;;5020101;28;20049;-76
2023/09/07 11:08:20;;;;;;;9.35;5.13;;;;;;;;;;5039393;28;20103;-75
2023/09/07 11:10:46;;;;;;;9.68;4.95;;;;;;;;;;5020888;28;20052;-76
2023/09/07 11:13:12;;;;;;;5.15;4.47;;;;;;;;;;5038906;28;20053;-76
2023/09/07 11:15:39;;;;;;;8.35;5.00;;;;;;;;;;5020041;28;20049;-76
2023/09/07 11:18:06;;;;;;;5.35;4.85;;;;;;;;;;5021999;28;20045;-76
2023/09/07 11:20:33;;;;;;;9.45;5.00;;;;;;;;;;5020738;28;20055;-76
2023/09/07 11:22:59;;;;;;;11.95;4.30;;;;;;;;;;5019421;28;20413;-76
2023/09/07 11:25:26;;;;;;;8.90;4.53;;;;;;;;;;5019054;28;20049;-76
2023/09/07 11:27:54;;;;;;;4.93;4.53;;;;;;;;;;5020161;28;20040;-76
2023/09/07 11:30:21;;;;;;;11.75;4.35;;;;;;;;;;5037581;28;20048;-76
2023/09/07 11:32:48;;;;;;;5.57;4.45;;;;;;;;;;5038546;28;20125;-76
2023/09/07 11:35:14;;;;;;;7.25;4.30;;;;;;;;;;5020140;28;20471;-76
2023/09/07 11:37:40;;;;;;;6.93;4.68;;;;;;;;;;5038839;28;20049;-76
2023/09/07 11:40:11;;;;;;;5.68;4.35;;;;;;;;;;5035432;28;20431;-76
2023/09/07 11:42:38;;;;;;;5.63;4.00;;;;;;;;;;5019060;28;20044;-76
2023/09/07 11:45:06;;;;;;;7.00;4.63;;;;;;;;;;5038529;28;20752;-76
2023/09/07 11:47:32;;;;;;;6.28;4.50;;;;;;;;;;5039203;28;20106;-76
2023/09/07 11:49:58;;;;;;;6.75;4.82;;;;;;;;;;5007518;28;20606;-76
2023/09/07 11:52:24;;;;;;;7.70;4.38;;;;;;;;;;5042209;28;20048;-76
2023/09/07 11:54:50;;;;;;;5.25;4.13;;;;;;;;;;5022770;28;20041;-76
2023/09/07 11:57:16;;;;;;;5.50;4.28;;;;;;;;;;5022792;28;20646;-76
2023/09/07 11:59:42;;;;;;;7.82;4.20;;;;;;;;;;5023727;28;20424;-76
2023/09/07 12:02:12;;;;;;;7.28;4.50;;;;;;;;;;5042206;28;20036;-76
2023/09/07 12:04:38;;;;;;;6.32;4.10;;;;;;;;;;5023147;28;20056;-76
2023/09/07 12:07:05;;;;;;;5.65;4.47;;;;;;;;;;5023362;28;20045;-76
2023/09/07 12:09:31;;;;;;;5.88;3.92;;;;;;;;;;5007550;28;20032;-76
2023/09/07 12:11:57;;;;;;;6.45;4.20;;;;;;;;;;5020511;28;20085;-76
2023/09/07 12:14:24;;;;;;;4.05;3.70;;;;;;;;;;5036757;28;20048;-76
2023/09/07 12:16:50;;;;;;;5.28;4.03;;;;;;;;;;5020999;28;20089;-76
2023/09/07 12:19:16;;;;;;;6.57;4.03;;;;;;;;;;5021575;28;20488;-76
2023/09/07 12:21:42;;;;;;;4.60;3.88;;;;;;;;;;5040132;28;20167;-75
2023/09/07 12:24:09;;;;;;;6.80;4.03;;;;;;;;;;5035348;28;20037;-75
2023/09/07 12:26:35;;;;;;;8.98;3.95;;;;;;;;;;5037192;28;20573;-75
2023/09/07 12:29:02;;;;;;;4.60;4.20;;;;;;;;;;5018186;28;20049;-76
2023/09/07 12:31:28;;;;;;;16.67;4.55;;;;;;;;;;5034945;28;20040;-76
2023/09/07 12:33:54;;;;;;;8.80;4.25;;;;;;;;;;5036742;28;20127;-76
2023/09/07 12:36:21;;;;;;;5.22;4.18;;;;;;;;;;5017731;28;20408;-76
2023/09/07 12:38:47;;;;;;;10.98;4.28;;;;;;;;;;5037287;28;20060;-76
2023/09/07 12:41:13;;;;;;;4.55;4.15;;;;;;;;;;5019073;28;20045;-75
2023/09/07 12:43:39;;;;;;;8.23;4.22;;;;;;;;;;5019262;28;20051;-74
2023/09/07 12:46:05;;;;;;;8.48;4.25;;;;;;;;;;5016713;28;20557;-74
2023/09/07 12:48:31;;;;;;;8.55;4.50;;;;;;;;;;5035114;28;20651;-75
2023/09/07 12:50:58;;;;;;;10.02;4.38;;;;;;;;;;5029351;28;21577;-74
2023/09/07 12:53:25;;;;;;;5.78;3.60;;;;;;;;;;5017822;28;20041;-74
2023/09/07 12:55:52;;;;;;;5.60;3.85;;;;;;;;;;5018918;28;20517;-74
2023/09/07 12:58:18;;;;;;;10.30;4.40;;;;;;;;;;5034824;28;20036;-74
2023/09/07 13:00:44;;;;;;;6.93;4.15;;;;;;;;;;5032989;28;20041;-75
2023/09/07 13:03:12;;;;;;;5.28;3.38;;;;;;;;;;5031424;28;20130;-74
2023/09/07 13:05:38;;;;;;;10.20;4.30;;;;;;;;;;5011541;28;20770;-75
2023/09/07 13:08:06;;;;;;;8.98;4.05;;;;;;;;;;5016353;28;20948;-75
2023/09/07 13:10:32;;;;;;;4.28;3.83;;;;;;;;;;5032291;28;20055;-75
2023/09/07 13:12:58;;;;;;;8.27;3.78;;;;;;;;;;5035162;28;20521;-75
2023/09/07 13:15:24;;;;;;;7.38;3.65;;;;;;;;;;5030822;28;20045;-75
2023/09/07 13:17:50;;;;;;;8.35;4.00;;;;;;;;;;5015083;28;20923;-74
2023/09/07 13:20:17;;;;;;;4.30;3.90;;;;;;;;;;5031658;28;20102;-74
2023/09/07 13:22:43;;;;;;;5.95;4.10;;;;;;;;;;5033327;28;20233;-74
2023/09/07 13:25:09;;;;;;;10.18;4.05;;;;;;;;;;5000798;28;20048;-75
2023/09/07 13:27:36;;;;;;;8.57;4.00;;;;;;;;;;5013449;28;20766;-75
2023/09/07 13:30:02;;;;;;;7.50;3.90;;;;;;;;;;5015312;28;22504;-74
2023/09/07 13:32:29;;;;;;;9.43;4.65;;;;;;;;;;5014681;28;20574;-74
2023/09/07 13:34:55;;;;;;;7.88;3.80;;;;;;;;;;5012412;28;21437;-76
2023/09/07 13:37:21;;;;;;;7.07;3.95;;;;;;;;;;5012997;28;20048;-75
2023/09/07 13:39:48;;;;;;;7.38;4.32;;;;;;;;;;5032827;28;20041;-75
2023/09/07 13:42:15;;;;;;;8.23;3.90;;;;;;;;;;5032926;28;20036;-74
2023/09/07 13:44:41;;;;;;;5.63;4.03;;;;;;;;;;5035720;28;20792;-75
2023/09/07 13:47:10;;;;;;;4.95;3.75;;;;;;;;;;5032752;28;20049;-74
2023/09/07 13:49:36;;;;;;;6.68;3.63;;;;;;;;;;5032820;28;20037;-75
2023/09/07 13:52:03;;;;;;;8.70;4.45;;;;;;;;;;5011316;28;20664;-75
2023/09/07 13:54:29;;;;;;;12.13;3.97;;;;;;;;;;5035619;28;20052;-75
2023/09/07 13:56:55;;;;;;;8.32;3.97;;;;;;;;;;5032222;28;20048;-74
2023/09/07 13:59:21;;;;;;;6.55;4.20;;;;;;;;;;5032832;28;20048;-75
2023/09/07 14:01:49;;;;;;;5.72;4.38;;;;;;;;;;5012666;28;20043;-75
2023/09/07 14:04:15;;;;;;;11.88;4.47;;;;;;;;;;5029045;28;20041;-75
2023/09/07 14:06:41;;;;;;;6.00;4.20;;;;;;;;;;5032458;28;20032;-75
2023/09/07 14:09:07;;;;;;;5.07;4.25;;;;;;;;;;5032582;28;20055;-75
2023/09/07 14:11:33;;;;;;;9.70;4.60;;;;;;;;;;5009363;28;20033;-75
2023/09/07 14:13:59;;;;;;;8.85;4.40;;;;;;;;;;5000986;28;20059;-75
2023/09/07 14:16:25;;;;;;;5.45;3.95;;;;;;;;;;5031577;28;20105;-75
2023/09/07 14:18:51;;;;;;;6.03;3.67;;;;;;;;;;5032588;28;21298;-75
2023/09/07 14:21:18;;;;;;;9.10;4.55;;;;;;;;;;4997035;28;20140;-75
2023/09/07 14:23:44;;;;;;;5.75;3.90;;;;;;;;;;5012927;28;20044;-75
2023/09/07 14:26:10;;;;;;;12.05;4.18;;;;;;;;;;5012565;28;20032;-76
2023/09/07 14:28:37;;;;;;;5.60;3.88;;;;;;;;;;5012550;28;20448;-76
2023/09/07 14:31:06;;;;;;;9.48;4.05;;;;;;;;;;5031177;28;20098;-76
2023/09/07 14:33:34;;;;;;;5.07;3.85;;;;;;;;;;5012535;28;20632;-76
2023/09/07 14:36:00;;;;;;;11.02;4.38;;;;;;;;;;4995892;28;20059;-75